createdAt,value
2022-12-04T00:01:22.201Z,102278.94
2022-12-04T00:03:53.591Z,102284.06
2022-12-04T00:09:16.768Z,102248.31
2022-12-04T00:11:43.818Z,102274.56
2022-12-04T00:14:11.126Z,102273.72
2022-12-04T00:16:38.320Z,102268.38
2022-12-04T00:19:05.537Z,102284.00
2022-12-04T00:21:32.643Z,102289.25
2022-12-04T00:23:59.569Z,102282.38
2022-12-04T00:26:28.507Z,102300.50
2022-12-04T00:28:56.198Z,102250.13
2022-12-04T00:31:26.193Z,102286.66
2022-12-04T00:33:53.538Z,102266.56
2022-12-04T00:36:25.913Z,102275.22
2022-12-04T00:38:53.498Z,102284.91
2022-12-04T00:41:23.399Z,102288.38
2022-12-04T00:43:50.888Z,102287.31
2022-12-04T00:46:18.689Z,102286.59
2022-12-04T00:48:46.943Z,102287.47
2022-12-04T00:51:22.068Z,102296.06
2022-12-04T00:53:49.710Z,102265.63
2022-12-04T00:56:22.859Z,102286.50
2022-12-04T00:58:56.256Z,102272.53
2022-12-04T01:01:25.534Z,102263.03
2022-12-04T01:03:53.916Z,102253.44
2022-12-04T01:06:27.231Z,102309.00
2022-12-04T01:08:56.243Z,102281.00
2022-12-04T01:11:25.124Z,102296.84
2022-12-04T01:13:53.040Z,102298.56
2022-12-04T01:16:27.774Z,102293.38
2022-12-04T01:18:54.981Z,102276.78
2022-12-04T01:21:21.968Z,102301.22
2022-12-04T01:23:49.331Z,102296.84
2022-12-04T01:26:16.442Z,102303.75
2022-12-04T01:28:43.458Z,102303.75
2022-12-04T01:31:13.473Z,102303.72
2022-12-04T01:33:41.817Z,102304.56
2022-12-04T01:36:12.227Z,102281.91
2022-12-04T01:38:40.212Z,102294.91
2022-12-04T01:41:09.768Z,102307.06
2022-12-04T01:43:38.908Z,102286.94
2022-12-04T01:46:06.179Z,102279.00
2022-12-04T01:48:39.530Z,102288.69
2022-12-04T01:51:23.440Z,102294.88
2022-12-04T01:53:54.887Z,102275.66
2022-12-04T01:56:30.865Z,102271.28
2022-12-04T01:59:01.800Z,102291.09
2022-12-04T02:01:35.339Z,102299.00
2022-12-04T02:04:02.920Z,102302.31
2022-12-04T02:06:30.014Z,102274.63
2022-12-04T02:08:56.899Z,102296.44
2022-12-04T02:11:30.357Z,102276.47
2022-12-04T02:14:25.030Z,102296.22
2022-12-04T02:17:13.424Z,102308.50
2022-12-04T02:20:12.747Z,102291.75
2022-12-04T02:23:07.464Z,102297.94
2022-12-04T02:25:43.302Z,102306.59
2022-12-04T02:28:15.768Z,102303.13
2022-12-04T02:30:44.413Z,102264.84
2022-12-04T02:33:22.331Z,102291.69
2022-12-04T02:36:13.951Z,102314.28
2022-12-04T02:38:45.424Z,102286.44
2022-12-04T02:41:42.603Z,102306.50
2022-12-04T02:44:20.614Z,102313.41
2022-12-04T02:46:53.004Z,102310.78
2022-12-04T02:49:27.314Z,102315.16
2022-12-04T02:51:56.985Z,102295.88
2022-12-04T02:54:37.579Z,102316.69
2022-12-04T02:57:07.754Z,102289.69
2022-12-04T02:59:47.323Z,102307.91
2022-12-04T03:02:21.195Z,102291.44
2022-12-04T03:04:52.409Z,102312.41
2022-12-04T03:07:37.699Z,102300.25
2022-12-04T03:10:12.188Z,102294.97
2022-12-04T03:12:50.788Z,102320.19
2022-12-04T03:15:29.709Z,102320.13
2022-12-04T03:18:03.681Z,102307.97
2022-12-04T03:20:35.329Z,102299.22
2022-12-04T03:23:13.045Z,102291.28
2022-12-04T03:26:02.692Z,102305.44
2022-12-04T03:28:39.067Z,102290.38
2022-12-04T03:31:09.966Z,102297.41
2022-12-04T03:33:47.903Z,102315.69
2022-12-04T03:36:31.666Z,102320.75
2022-12-04T03:39:33.991Z,102317.41
2022-12-04T03:42:07.401Z,102327.69
2022-12-04T03:44:46.335Z,102324.19
2022-12-04T03:47:29.520Z,102330.06
2022-12-04T03:50:02.913Z,102327.56
2022-12-04T03:52:41.998Z,102333.75
2022-12-04T03:55:19.969Z,102308.56
2022-12-04T03:57:49.472Z,102334.53
2022-12-04T04:00:43.422Z,102314.75
2022-12-04T04:03:21.812Z,102346.84
2022-12-04T04:05:54.601Z,102345.06
2022-12-04T04:08:27.682Z,102357.09
2022-12-04T04:11:07.931Z,102340.53
2022-12-04T04:13:59.223Z,102349.25
2022-12-04T04:16:47.521Z,102353.63
2022-12-04T04:19:37.265Z,102332.75
2022-12-04T04:22:27.007Z,102307.34
2022-12-04T04:24:59.784Z,102342.31
2022-12-04T04:27:26.835Z,102355.34
2022-12-04T04:29:54.246Z,102342.34
2022-12-04T04:32:50.881Z,102350.97
2022-12-04T04:35:20.995Z,102352.69
2022-12-04T04:38:00.205Z,102357.88
2022-12-04T04:40:36.539Z,102358.72
2022-12-04T04:43:36.094Z,102343.94
2022-12-04T04:46:08.947Z,102364.00
2022-12-04T04:48:44.057Z,102351.72
2022-12-04T04:51:11.710Z,102339.56
2022-12-04T04:53:54.249Z,102329.09
2022-12-04T04:56:22.134Z,102366.50
2022-12-04T04:58:49.396Z,102374.38
2022-12-04T05:01:19.334Z,102372.63
2022-12-04T05:03:47.119Z,102367.44
2022-12-04T05:06:14.878Z,102352.66
2022-12-04T05:08:42.051Z,102367.44
2022-12-04T05:11:13.197Z,102344.69
2022-12-04T05:13:40.276Z,102358.72
2022-12-04T05:16:09.252Z,102368.31
2022-12-04T05:18:36.800Z,102369.19
2022-12-04T05:21:16.240Z,102364.78
2022-12-04T05:23:43.711Z,102367.31
2022-12-04T05:26:19.305Z,102355.13
2022-12-04T05:28:54.078Z,102349.88
2022-12-04T05:31:21.063Z,102387.28
2022-12-04T05:33:48.152Z,102363.91
2022-12-04T05:36:14.971Z,102386.44
2022-12-04T05:38:42.076Z,102351.59
2022-12-04T05:41:09.497Z,102383.84
2022-12-04T05:43:37.444Z,102374.97
2022-12-04T05:46:07.425Z,102397.63
2022-12-04T05:48:35.721Z,102362.66
2022-12-04T05:51:10.555Z,102397.53
2022-12-04T05:53:38.452Z,102392.44
2022-12-04T05:56:07.490Z,102400.13
2022-12-04T05:58:38.461Z,102396.72
2022-12-04T06:01:13.907Z,102389.75
2022-12-04T06:03:41.203Z,102385.38
2022-12-04T06:06:21.425Z,102390.69
2022-12-04T06:08:56.254Z,102395.88
2022-12-04T06:11:32.798Z,102415.84
2022-12-04T06:14:01.725Z,102388.25
2022-12-04T06:16:39.206Z,102359.47
2022-12-04T06:19:09.132Z,102374.28
2022-12-04T06:21:38.505Z,102400.41
2022-12-04T06:24:06.419Z,102403.72
2022-12-04T06:27:18.775Z,102392.50
2022-12-04T06:29:34.064Z,102398.75
2022-12-04T06:32:01.080Z,102402.16
2022-12-04T06:34:28.284Z,102388.09
2022-12-04T06:36:55.120Z,102402.13
2022-12-04T06:39:22.184Z,102381.28
2022-12-04T06:41:49.015Z,102400.50
2022-12-04T06:44:16.770Z,102404.88
2022-12-04T06:46:47.145Z,102381.41
2022-12-04T06:49:14.678Z,102388.19
2022-12-04T06:51:41.879Z,102409.94
2022-12-04T06:54:10.247Z,102405.63
2022-12-04T06:56:37.568Z,102391.78
2022-12-04T06:59:05.800Z,102407.41
2022-12-04T07:01:35.203Z,102379.47
2022-12-04T07:04:04.605Z,102399.47
2022-12-04T07:06:37.000Z,102419.56
2022-12-04T07:09:06.253Z,102386.47
2022-12-04T07:11:34.461Z,102417.06
2022-12-04T07:14:03.994Z,102405.75
2022-12-04T07:16:36.684Z,102415.31
2022-12-04T07:19:07.664Z,102438.78
2022-12-04T07:21:34.947Z,102420.63
2022-12-04T07:24:02.157Z,102431.06
2022-12-04T07:26:30.765Z,102414.53
2022-12-04T07:28:59.185Z,102434.53
2022-12-04T07:31:28.608Z,102403.06
2022-12-04T07:33:56.371Z,102425.00
2022-12-04T07:36:24.733Z,102433.88
2022-12-04T07:38:52.321Z,102427.75
2022-12-04T07:41:19.988Z,102430.50
2022-12-04T07:43:47.521Z,102427.81
2022-12-04T07:46:17.207Z,102433.22
2022-12-04T07:48:44.779Z,102432.28
2022-12-04T07:51:14.393Z,102430.63
2022-12-04T07:53:42.112Z,102435.06
2022-12-04T07:56:10.873Z,102435.94
2022-12-04T07:58:38.667Z,102451.63
2022-12-04T08:01:20.809Z,102437.78
2022-12-04T08:03:49.795Z,102425.59
2022-12-04T08:06:19.227Z,102436.19
2022-12-04T08:08:47.232Z,102438.78
2022-12-04T08:11:17.759Z,102435.38
2022-12-04T08:13:45.623Z,102410.13
2022-12-04T08:16:14.074Z,102448.47
2022-12-04T08:18:46.798Z,102432.94
2022-12-04T08:21:20.866Z,102442.47
2022-12-04T08:23:50.881Z,102441.72
2022-12-04T08:26:19.635Z,102424.34
2022-12-04T08:28:47.170Z,102431.38
2022-12-04T08:31:20.436Z,102430.47
2022-12-04T08:33:49.239Z,102429.75
2022-12-04T08:36:19.603Z,102437.56
2022-12-04T08:38:48.607Z,102443.72
2022-12-04T08:41:18.046Z,102428.94
2022-12-04T08:43:45.622Z,102429.97
2022-12-04T08:46:16.427Z,102400.44
2022-12-04T08:48:44.494Z,102409.19
2022-12-04T08:51:32.724Z,102441.50
2022-12-04T08:54:01.312Z,102432.81
2022-12-04T08:56:29.941Z,102412.78
2022-12-04T08:58:57.600Z,102414.50
2022-12-04T09:01:25.903Z,102421.56
2022-12-04T09:03:53.921Z,102404.13
2022-12-04T09:06:21.818Z,102436.41
2022-12-04T09:08:52.378Z,102419.13
2022-12-04T09:11:21.941Z,102426.88
2022-12-04T09:13:49.092Z,102405.94
2022-12-04T09:16:20.125Z,102400.81
2022-12-04T09:18:47.987Z,102435.66
2022-12-04T09:21:17.740Z,102414.88
2022-12-04T09:23:45.516Z,102414.88
2022-12-04T09:26:19.148Z,102419.34
2022-12-04T09:28:46.936Z,102396.72
2022-12-04T09:31:14.206Z,102408.00
2022-12-04T09:33:41.245Z,102415.00
2022-12-04T09:36:08.402Z,102419.34
2022-12-04T09:38:35.549Z,102415.94
2022-12-04T09:41:14.965Z,102422.88
2022-12-04T09:44:04.459Z,102415.09
2022-12-04T09:46:39.426Z,102416.81
2022-12-04T09:49:12.893Z,102394.22
2022-12-04T09:51:42.091Z,102415.97
2022-12-04T09:54:21.872Z,102381.16
2022-12-04T09:56:56.114Z,102411.63
2022-12-04T09:59:29.294Z,102401.19
2022-12-04T10:02:13.474Z,102411.63
2022-12-04T10:04:40.602Z,102408.16
2022-12-04T10:07:13.672Z,102409.97
2022-12-04T10:09:59.645Z,102399.53
2022-12-04T10:13:02.054Z,102411.78
2022-12-04T10:15:29.075Z,102401.34
2022-12-04T10:18:02.670Z,102400.47
2022-12-04T10:20:58.525Z,102400.41
2022-12-04T10:23:49.220Z,102388.25
2022-12-04T10:26:19.387Z,102389.16
2022-12-04T10:28:59.512Z,102389.19
2022-12-04T10:31:28.117Z,102376.16
2022-12-04T10:33:57.788Z,102390.06
2022-12-04T10:36:32.958Z,102354.38
2022-12-04T10:39:11.193Z,102392.66
2022-12-04T10:41:45.530Z,102388.31
2022-12-04T10:44:18.055Z,102383.13
2022-12-04T10:46:46.659Z,102368.28
2022-12-04T10:49:17.753Z,102383.97
2022-12-04T10:51:47.440Z,102394.44
2022-12-04T10:54:40.673Z,102364.00
2022-12-04T10:57:11.408Z,102385.75
2022-12-04T10:59:49.512Z,102368.38
2022-12-04T11:02:26.410Z,102386.59
2022-12-04T11:05:03.249Z,102380.56
2022-12-04T11:07:41.983Z,102353.63
2022-12-04T11:10:38.955Z,102375.34
2022-12-04T11:13:17.510Z,102378.81
2022-12-04T11:15:59.182Z,102362.34
2022-12-04T11:18:32.698Z,102377.06
2022-12-04T11:21:01.085Z,102366.63
2022-12-04T11:23:41.438Z,102378.81
2022-12-04T11:26:12.417Z,102385.78
2022-12-04T11:28:44.955Z,102385.75
2022-12-04T11:31:20.647Z,102394.44
2022-12-04T11:33:54.736Z,102344.06
2022-12-04T11:36:23.735Z,102367.53
2022-12-04T11:38:53.693Z,102357.91
2022-12-04T11:41:28.185Z,102368.38
2022-12-04T11:43:59.890Z,102358.78
2022-12-04T11:46:34.358Z,102336.19
2022-12-04T11:49:03.504Z,102374.41
2022-12-04T11:51:55.862Z,102360.59
2022-12-04T11:54:37.113Z,102332.75
2022-12-04T11:57:26.281Z,102360.53
2022-12-04T12:00:15.851Z,102377.06
2022-12-04T12:03:10.473Z,102358.81
2022-12-04T12:05:56.515Z,102363.16
2022-12-04T12:08:43.650Z,102349.28
2022-12-04T12:11:30.054Z,102361.41
2022-12-04T12:14:25.775Z,102354.50
2022-12-04T12:17:15.024Z,102353.63
2022-12-04T12:19:51.460Z,102357.06
2022-12-04T12:22:32.801Z,102334.44
2022-12-04T12:25:38.036Z,102347.50
2022-12-04T12:28:11.272Z,102340.53
2022-12-04T12:30:51.453Z,102350.09
2022-12-04T12:33:34.895Z,102343.94
2022-12-04T12:36:12.777Z,102341.31
2022-12-04T12:38:43.292Z,102367.38
2022-12-04T12:41:17.410Z,102344.78
2022-12-04T12:43:56.279Z,102370.00
2022-12-04T12:46:37.571Z,102369.13
2022-12-04T12:49:13.934Z,102338.59
2022-12-04T12:52:19.584Z,102359.50
2022-12-04T12:54:55.936Z,102356.00
2022-12-04T12:58:04.931Z,102355.97
2022-12-04T13:00:39.300Z,102382.78
2022-12-04T13:03:27.274Z,102360.22
2022-12-04T13:06:00.136Z,102368.03
2022-12-04T13:08:59.599Z,102384.41
2022-12-04T15:17:17.805Z,102354.19
2022-12-04T15:19:48.955Z,102347.28
2022-12-04T15:22:27.611Z,102362.91
2022-12-04T15:24:56.100Z,102368.00
2022-12-04T15:27:31.951Z,102316.72
2022-12-04T15:30:04.627Z,102361.03
2022-12-04T15:32:32.880Z,102327.13
2022-12-04T15:35:09.370Z,102351.53
2022-12-04T15:37:37.222Z,102342.75
2022-12-04T15:40:12.105Z,102320.97
2022-12-04T15:43:20.096Z,102351.28
2022-12-04T15:45:47.971Z,102329.66
2022-12-04T15:48:30.435Z,102311.31
2022-12-04T15:51:05.716Z,102344.53
2022-12-04T15:53:37.684Z,102349.72
2022-12-04T15:56:09.808Z,102330.47
2022-12-04T15:58:40.880Z,102313.97
2022-12-04T16:01:11.900Z,102345.28
2022-12-04T16:03:52.073Z,102346.03
2022-12-04T16:06:24.388Z,102363.41
2022-12-04T16:09:20.303Z,102353.06
2022-12-04T16:11:57.062Z,102350.41
2022-12-04T16:14:27.698Z,102364.31
2022-12-04T16:17:05.894Z,102321.66
2022-12-04T16:19:36.935Z,102363.50
2022-12-04T16:22:20.774Z,102353.06
2022-12-04T16:24:48.589Z,102373.94
2022-12-04T16:27:20.390Z,102338.16
2022-12-04T16:29:47.956Z,102332.81
2022-12-04T16:32:18.220Z,102349.41
2022-12-04T16:34:49.337Z,102343.44
2022-12-04T16:37:21.305Z,102333.94
2022-12-04T16:39:49.481Z,102360.84
2022-12-04T16:42:23.618Z,102347.88
2022-12-04T16:44:51.675Z,102335.69
2022-12-04T16:47:19.157Z,102334.75
2022-12-04T16:49:50.262Z,102338.16
2022-12-04T16:52:18.364Z,102331.91
2022-12-04T16:54:45.853Z,102341.66
2022-12-04T16:57:13.452Z,102313.00
2022-12-04T16:59:40.893Z,102321.50
2022-12-04T17:02:20.487Z,102344.19
2022-12-04T17:04:54.194Z,102343.38
2022-12-04T17:07:27.357Z,102339.75
2022-12-04T17:10:00.472Z,102329.25
2022-12-04T17:12:34.005Z,102362.22
2022-12-04T17:15:01.102Z,102330.09
2022-12-04T17:17:31.218Z,102335.41
2022-12-04T17:19:58.666Z,102365.88
2022-12-04T17:22:30.928Z,102344.09
2022-12-04T17:24:59.179Z,102367.47
2022-12-04T17:27:27.972Z,102332.59
2022-12-04T17:30:00.177Z,102356.16
2022-12-04T17:32:34.989Z,102342.28
2022-12-04T17:35:03.201Z,102350.88
2022-12-04T17:37:35.618Z,102334.31
2022-12-04T17:40:03.018Z,102333.31
2022-12-04T17:42:30.649Z,102342.09
2022-12-04T17:44:58.076Z,102342.09
2022-12-04T17:47:25.641Z,102345.63
2022-12-04T17:49:53.139Z,102339.34
2022-12-04T17:52:22.625Z,102345.38
2022-12-04T17:54:51.619Z,102328.03
2022-12-04T17:57:19.854Z,102329.78
2022-12-04T17:59:47.181Z,102308.84
2022-12-04T18:02:15.380Z,102299.34
2022-12-04T18:04:42.853Z,102328.94
2022-12-04T18:07:10.162Z,102318.53
2022-12-04T18:09:37.901Z,102315.06
2022-12-04T18:12:05.574Z,102293.97
2022-12-04T18:14:34.483Z,102326.16
2022-12-04T18:17:03.072Z,102308.72
2022-12-04T18:19:30.960Z,102340.72
2022-12-04T18:21:58.901Z,102333.75
2022-12-04T18:24:26.697Z,102313.97
2022-12-04T18:26:54.112Z,102316.69
2022-12-04T18:29:25.508Z,102337.28
2022-12-04T18:31:54.062Z,102279.28
2022-12-04T18:34:22.109Z,102275.81
2022-12-04T18:36:49.912Z,102316.56
2022-12-04T18:39:22.950Z,102289.34
2022-12-04T18:41:50.815Z,102313.09
2022-12-04T18:44:18.487Z,102315.56
2022-12-04T18:46:45.829Z,102311.16
2022-12-04T18:49:13.024Z,102287.78
2022-12-04T18:51:49.552Z,102313.81
2022-12-04T18:54:23.057Z,102288.47
2022-12-04T18:56:51.005Z,102305.97
2022-12-04T18:59:20.828Z,102297.19
2022-12-04T19:01:50.389Z,102291.28
2022-12-04T19:04:21.590Z,102276.47
2022-12-04T19:06:53.365Z,102299.91
2022-12-04T19:09:40.712Z,102291.16
2022-12-04T19:12:08.424Z,102296.47
2022-12-04T19:14:35.851Z,102282.28
2022-12-04T19:17:03.245Z,102283.31
2022-12-04T19:19:31.918Z,102299.78
2022-12-04T19:22:01.243Z,102304.94
2022-12-04T19:24:28.448Z,102288.41
2022-12-04T19:26:55.719Z,102288.22
2022-12-04T19:29:23.040Z,102288.34
2022-12-04T19:31:52.487Z,102302.09
2022-12-04T19:34:23.422Z,102299.56
2022-12-04T19:36:51.504Z,102263.09
2022-12-04T19:39:18.805Z,102273.59
2022-12-04T19:41:47.556Z,102286.69
2022-12-04T19:44:46.782Z,102255.25
2022-12-04T19:47:02.275Z,102263.94
2022-12-04T19:49:29.613Z,102272.38
2022-12-04T19:51:56.882Z,102263.66
2022-12-04T19:54:24.757Z,102275.16
2022-12-04T19:56:52.726Z,102268.06
2022-12-04T19:59:20.635Z,102275.16
2022-12-04T20:01:48.249Z,102264.38
2022-12-04T20:04:15.865Z,102279.41
2022-12-04T20:06:45.057Z,102275.16
2022-12-04T20:09:18.046Z,102275.09
2022-12-04T20:11:45.143Z,102257.44
2022-12-04T20:14:12.397Z,102280.22
2022-12-04T20:16:40.124Z,102265.47
2022-12-04T20:19:11.684Z,102264.50
2022-12-04T20:21:39.085Z,102288.81
2022-12-04T20:24:07.047Z,102277.53
2022-12-04T20:26:38.392Z,102272.28
2022-12-04T20:29:07.620Z,102268.81
2022-12-04T20:31:37.392Z,102264.56
2022-12-04T20:34:11.063Z,102275.03
2022-12-04T20:36:41.453Z,102269.75
2022-12-04T20:39:09.890Z,102263.78
2022-12-04T20:41:38.294Z,102251.41
2022-12-04T20:44:07.711Z,102277.59
2022-12-04T20:46:39.659Z,102277.38
2022-12-04T20:49:13.401Z,102253.13
2022-12-04T20:51:44.349Z,102261.72
2022-12-04T20:54:15.315Z,102246.13
2022-12-04T20:56:42.316Z,102271.25
2022-12-04T20:59:13.309Z,102249.50
2022-12-04T21:01:41.293Z,102247.72
2022-12-04T21:04:08.548Z,102274.63
2022-12-04T21:06:39.092Z,102270.94
2022-12-04T21:09:12.992Z,102273.78
2022-12-04T21:11:45.866Z,102261.59
2022-12-04T21:14:37.520Z,102248.66
2022-12-04T21:17:06.930Z,102246.91
2022-12-04T21:19:34.198Z,102262.47
2022-12-04T21:22:01.401Z,102282.38
2022-12-04T21:24:30.426Z,102264.25
2022-12-04T21:26:57.490Z,102252.09
2022-12-04T21:29:24.353Z,102259.16
2022-12-04T21:31:51.522Z,102259.25
2022-12-04T21:34:18.959Z,102262.63
2022-12-04T21:36:48.509Z,102252.19
2022-12-04T21:39:15.595Z,102256.56
2022-12-04T21:42:01.701Z,102227.78
2022-12-04T21:44:28.906Z,102229.44
2022-12-04T21:46:55.944Z,102236.50
2022-12-04T21:49:23.234Z,102221.56
2022-12-04T21:51:58.669Z,102234.66
2022-12-04T21:54:28.963Z,102234.78
2022-12-04T21:56:57.231Z,102210.44
2022-12-04T21:59:25.639Z,102236.41
2022-12-04T22:01:54.204Z,102232.97
2022-12-04T22:04:22.021Z,102218.22
2022-12-04T22:06:49.477Z,102224.34
2022-12-04T22:09:17.194Z,102226.06
2022-12-04T22:11:44.787Z,102227.78
2022-12-04T22:14:12.312Z,102211.31
2022-12-04T22:16:42.787Z,102207.81
2022-12-04T22:19:12.162Z,102211.31
2022-12-04T22:21:40.327Z,102208.75
2022-12-04T22:24:27.333Z,102206.22
2022-12-04T22:26:54.249Z,102211.41
2022-12-04T22:32:08.451Z,102184.50
2022-12-04T22:34:35.424Z,102205.38
2022-12-04T22:37:02.365Z,102198.53
2022-12-04T22:39:29.610Z,102205.53
2022-12-04T22:41:56.501Z,102193.44
2022-12-04T22:44:23.509Z,102191.63
2022-12-04T22:46:50.583Z,102197.75
2022-12-04T22:49:17.595Z,102175.97
2022-12-04T22:51:44.811Z,102188.09
2022-12-04T22:54:13.180Z,102199.34
2022-12-04T22:56:40.315Z,102212.34
2022-12-04T22:59:07.259Z,102184.59
2022-12-04T23:01:34.973Z,102191.63
2022-12-04T23:04:03.696Z,102172.47
2022-12-04T23:06:33.241Z,102171.66
2022-12-04T23:09:04.917Z,102162.16
2022-12-04T23:11:32.147Z,102180.44
2022-12-04T23:14:01.390Z,102162.03
2022-12-04T23:16:30.787Z,102183.72
2022-12-04T23:18:57.892Z,102188.03
2022-12-04T23:21:24.824Z,102181.22
2022-12-04T23:23:53.351Z,102193.28
2022-12-04T23:26:23.121Z,102182.09
2022-12-04T23:28:50.165Z,102179.44
2022-12-04T23:31:17.466Z,102176.94
2022-12-04T23:33:44.674Z,102175.00
2022-12-04T23:36:13.545Z,102185.53
2022-12-04T23:38:42.092Z,102176.91
2022-12-04T23:41:13.360Z,102176.13
2022-12-04T23:43:40.961Z,102157.88
2022-12-04T23:46:11.484Z,102160.53
2022-12-04T23:48:43.460Z,102157.06
2022-12-04T23:51:12.752Z,102168.28
2022-12-04T23:53:40.477Z,102138.66
2022-12-04T23:56:16.537Z,102141.31
2022-12-04T23:58:45.691Z,102164.66
